Time;durP1;ratioP1;P1;durP2;ratioP2;P2;SDS_P1;SDS_P2;PMS_P1;PMS_P2;Temp;Humidity;BMP_temperature;BMP_pressure;BME280_temperature;BME280_humidity;BME280_pressure;Samples;Min_cycle;Max_cycle;Signal;HPM_P1;HPM_P2
2021/01/11 00:00:58;;;;;;;37.40;20.15;;;-6.70;86.30;;;;;;4973899;28;20353;-78
2021/01/11 00:03:23;;;;;;;33.42;15.07;;;-6.70;86.50;;;;;;4973721;28;20105;-76
2021/01/11 00:05:49;;;;;;;27.58;12.60;;;-6.70;86.60;;;;;;4973714;28;20107;-79
2021/01/11 00:08:15;;;;;;;40.55;20.67;;;-6.70;86.60;;;;;;4973706;28;20023;-78
2021/01/11 00:10:41;;;;;;;39.08;18.98;;;-6.70;86.30;;;;;;4973638;28;20038;-77
2021/01/11 00:13:06;;;;;;;32.20;17.80;;;-6.70;86.00;;;;;;4974117;28;20015;-79
2021/01/11 00:15:32;;;;;;;30.90;17.77;;;-6.70;86.00;;;;;;4973953;28;20046;-78
2021/01/11 00:17:58;;;;;;;35.13;18.02;;;-6.70;85.70;;;;;;4956419;28;20027;-77
2021/01/11 00:20:24;;;;;;;40.28;17.77;;;-6.70;85.50;;;;;;4974039;28;20384;-78
2021/01/11 00:22:50;;;;;;;32.50;16.23;;;-6.70;85.70;;;;;;4973542;28;20022;-78
2021/01/11 00:25:16;;;;;;;31.77;17.50;;;-6.80;85.80;;;;;;4973763;28;20085;-78
2021/01/11 00:27:42;;;;;;;35.30;20.17;;;-6.70;85.80;;;;;;4973377;28;20042;-77
2021/01/11 00:30:09;;;;;;;40.00;20.63;;;-6.70;86.00;;;;;;4973435;28;20069;-79
2021/01/11 00:32:36;;;;;;;37.38;19.15;;;-6.80;85.80;;;;;;4973420;28;20027;-77
2021/01/11 00:35:03;;;;;;;31.20;17.92;;;-6.80;85.90;;;;;;4972303;28;20037;-77
2021/01/11 00:37:29;;;;;;;24.58;13.68;;;-6.80;85.90;;;;;;4971475;28;20449;-77
2021/01/11 00:39:55;;;;;;;28.20;16.45;;;-6.80;85.90;;;;;;4977097;28;20027;-77
2021/01/11 00:42:21;;;;;;;30.15;17.73;;;-6.80;86.00;;;;;;4977338;28;20401;-77
2021/01/11 00:44:48;;;;;;;31.25;14.98;;;-6.80;86.20;;;;;;4976749;28;20037;-78
2021/01/11 00:47:15;;;;;;;29.75;17.20;;;-6.80;86.40;;;;;;4981612;28;20019;-78
2021/01/11 00:49:41;;;;;;;22.88;13.80;;;-6.80;86.50;;;;;;4986938;28;20030;-78
2021/01/11 00:52:07;;;;;;;34.30;16.50;;;-6.80;86.20;;;;;;4978254;28;20014;-79
2021/01/11 00:54:33;;;;;;;36.25;16.83;;;-6.80;86.00;;;;;;4984501;28;20408;-79
2021/01/11 00:56:59;;;;;;;28.60;16.42;;;-6.80;85.90;;;;;;4976855;28;20035;-77
2021/01/11 00:59:25;;;;;;;25.45;13.80;;;-6.80;86.40;;;;;;4977119;28;20023;-78
2021/01/11 01:01:53;;;;;;;30.08;15.40;;;-6.80;85.70;;;;;;4978841;28;20136;-79
2021/01/11 01:04:19;;;;;;;31.58;14.23;;;-6.80;85.70;;;;;;4979097;28;20050;-77
2021/01/11 01:06:46;;;;;;;22.30;13.18;;;-6.80;85.70;;;;;;4977143;28;20023;-78
2021/01/11 01:09:12;;;;;;;25.70;13.60;;;-6.80;85.80;;;;;;4976950;28;20089;-79
2021/01/11 01:11:39;;;;;;;26.55;14.80;;;-6.80;86.20;;;;;;4977142;28;20039;-78
2021/01/11 01:14:05;;;;;;;25.23;13.90;;;-6.80;86.40;;;;;;4981394;28;20015;-79
2021/01/11 01:16:31;;;;;;;24.88;14.57;;;-6.70;87.10;;;;;;4977536;28;20063;-77
2021/01/11 01:18:58;;;;;;;26.13;14.70;;;-6.80;86.10;;;;;;4976512;28;20022;-79
2021/01/11 01:21:23;;;;;;;27.48;15.02;;;-6.80;85.90;;;;;;4976037;28;20015;-78
2021/01/11 01:23:49;;;;;;;25.45;13.90;;;-6.80;85.70;;;;;;4976066;28;20027;-79
2021/01/11 01:26:15;;;;;;;29.70;15.15;;;-6.70;85.90;;;;;;4976410;28;20098;-76
2021/01/11 01:28:41;;;;;;;19.63;12.48;;;-6.80;85.80;;;;;;4976137;28;20444;-80
2021/01/11 01:31:07;;;;;;;28.13;15.10;;;-6.70;86.20;;;;;;4975912;28;20073;-80
2021/01/11 01:33:33;;;;;;;29.63;17.25;;;-6.70;86.50;;;;;;4958741;28;20113;-80
2021/01/11 01:35:59;;;;;;;23.15;14.23;;;-6.70;86.50;;;;;;4976176;28;20076;-79
2021/01/11 01:38:25;;;;;;;30.17;18.00;;;-6.70;86.40;;;;;;4976433;28;20366;-78
2021/01/11 01:40:50;;;;;;;25.42;13.32;;;-6.70;86.30;;;;;;4975961;28;20457;-78
2021/01/11 01:43:16;;;;;;;32.72;16.90;;;-6.70;86.30;;;;;;4975745;28;20098;-79
2021/01/11 01:45:42;;;;;;;31.63;16.60;;;-6.70;86.10;;;;;;4958774;28;20096;-79
2021/01/11 01:48:09;;;;;;;39.13;21.27;;;-6.70;86.10;;;;;;4975254;28;20074;-78
2021/01/11 01:50:37;;;;;;;30.90;15.77;;;-6.70;86.10;;;;;;4975578;28;20053;-78
2021/01/11 01:53:03;;;;;;;35.05;16.40;;;-6.70;86.30;;;;;;4982433;28;20109;-80
2021/01/11 01:55:29;;;;;;;34.33;17.10;;;-6.70;87.00;;;;;;4958179;28;20077;-79
2021/01/11 01:58:00;;;;;;;35.03;17.35;;;-6.70;86.40;;;;;;4975713;28;20026;-78
2021/01/11 02:00:26;;;;;;;33.75;16.45;;;-6.70;86.40;;;;;;4975412;28;20396;-78
2021/01/11 02:02:52;;;;;;;32.42;16.10;;;-6.70;86.10;;;;;;4975609;28;20034;-78
2021/01/11 02:05:18;;;;;;;34.08;16.45;;;-6.70;85.80;;;;;;4975578;28;20109;-79
2021/01/11 02:07:57;;;;;;;33.65;17.55;;;-6.70;85.90;;;;;;4975604;28;20023;-78
2021/01/11 02:10:26;;;;;;;33.92;16.92;;;-6.70;86.30;;;;;;4975072;28;20031;-78
2021/01/11 02:13:10;;;;;;;36.72;18.92;;;-6.80;86.60;;;;;;4975586;28;20465;-77
2021/01/11 02:16:21;;;;;;;30.55;18.10;;;-6.70;86.80;;;;;;4957657;28;20440;-79
2021/01/11 02:19:07;;;;;;;35.60;16.52;;;-6.70;86.60;;;;;;4953791;28;20038;-79
2021/01/11 02:21:51;;;;;;;32.60;17.35;;;-6.70;86.30;;;;;;4975409;28;20015;-79
2021/01/11 02:24:39;;;;;;;36.38;18.23;;;-6.60;86.50;;;;;;4974767;28;20023;-78
2021/01/11 02:27:26;;;;;;;27.73;15.02;;;-6.60;86.60;;;;;;4975012;28;20104;-77
2021/01/11 02:30:10;;;;;;;34.65;17.65;;;-6.50;86.30;;;;;;4978326;28;20050;-79
2021/01/11 02:32:50;;;;;;;31.73;16.20;;;-6.60;85.80;;;;;;4968799;28;20035;-80
2021/01/11 02:35:18;;;;;;;37.78;16.00;;;-6.60;85.80;;;;;;4963134;28;20045;-79
2021/01/11 02:37:44;;;;;;;25.08;12.45;;;-6.60;85.80;;;;;;4973051;28;20058;-79
2021/01/11 02:40:11;;;;;;;30.80;15.27;;;-6.70;86.00;;;;;;4974583;28;20026;-78
2021/01/11 02:42:38;;;;;;;39.97;17.27;;;-6.70;86.00;;;;;;4974732;28;20384;-80
2021/01/11 02:45:06;;;;;;;31.13;13.02;;;-6.70;86.00;;;;;;4974537;28;20053;-76
2021/01/11 02:48:01;;;;;;;35.88;18.90;;;-6.70;86.10;;;;;;4975532;28;20376;-77
2021/01/11 02:50:28;;;;;;;33.83;15.43;;;-6.70;85.90;;;;;;4975610;28;20484;-79
2021/01/11 02:53:19;;;;;;;34.17;19.63;;;-6.70;86.00;;;;;;4982058;28;20049;-79
2021/01/11 02:56:05;;;;;;;29.58;20.52;;;-6.70;86.40;;;;;;4973805;28;20103;-77
2021/01/11 02:59:02;;;;;;;37.63;21.55;;;-6.70;86.50;;;;;;4961601;28;20039;-79
2021/01/11 03:01:35;;;;;;;35.20;19.40;;;-6.60;86.60;;;;;;4974896;28;20378;-79
2021/01/11 03:04:03;;;;;;;42.05;19.98;;;-6.60;86.10;;;;;;4934969;29;20039;-78
2021/01/11 03:06:32;;;;;;;36.13;18.92;;;-6.60;86.00;;;;;;4934084;29;20039;-77
2021/01/11 03:09:15;;;;;;;39.10;18.13;;;-6.60;86.20;;;;;;4933941;29;20370;-79
2021/01/11 03:11:41;;;;;;;35.00;17.50;;;-6.60;86.60;;;;;;4933825;29;20071;-78
2021/01/11 03:14:07;;;;;;;27.48;16.42;;;-6.60;86.70;;;;;;4934375;29;20066;-79
2021/01/11 03:16:33;;;;;;;36.35;19.00;;;-6.60;86.90;;;;;;4918350;29;20032;-79
2021/01/11 03:18:59;;;;;;;31.75;17.77;;;-6.60;86.90;;;;;;4933936;29;20036;-79
2021/01/11 03:21:24;;;;;;;38.35;19.63;;;-6.60;87.00;;;;;;4934233;29;20110;-79
2021/01/11 03:23:50;;;;;;;48.80;18.65;;;-6.60;87.10;;;;;;4934186;29;20036;-79
2021/01/11 03:26:24;;;;;;;30.10;14.07;;;-6.50;87.10;;;;;;4933464;29;20096;-78
2021/01/11 03:28:50;;;;;;;40.75;18.48;;;-6.50;86.90;;;;;;4933692;29;20078;-79
2021/01/11 03:31:16;;;;;;;32.47;16.40;;;-6.50;86.60;;;;;;4932571;29;20126;-77
2021/01/11 03:33:42;;;;;;;41.67;19.70;;;-6.50;86.60;;;;;;4933625;29;20120;-79
2021/01/11 03:36:08;;;;;;;34.20;19.00;;;-6.50;86.30;;;;;;4972930;28;20463;-78
2021/01/11 03:38:34;;;;;;;41.60;20.88;;;-6.50;86.00;;;;;;4973990;28;20114;-79
2021/01/11 03:41:07;;;;;;;36.40;19.08;;;-6.50;86.00;;;;;;4957750;28;20396;-78
2021/01/11 03:43:33;;;;;;;42.30;19.45;;;-6.50;86.20;;;;;;4974777;28;20449;-77
2021/01/11 03:45:59;;;;;;;36.80;18.17;;;-6.60;86.30;;;;;;4976316;28;20027;-78
2021/01/11 03:48:25;;;;;;;40.20;19.30;;;-6.60;86.50;;;;;;4973684;28;20027;-78
2021/01/11 03:50:51;;;;;;;33.13;18.92;;;-6.60;86.70;;;;;;4973350;28;20038;-80
2021/01/11 03:53:16;;;;;;;30.17;14.60;;;-6.60;86.80;;;;;;4976241;28;20034;-79
2021/01/11 03:55:42;;;;;;;42.05;21.17;;;-6.60;86.80;;;;;;4974127;28;20035;-78
2021/01/11 03:58:09;;;;;;;34.67;19.02;;;-6.60;86.90;;;;;;4959329;28;20378;-77
2021/01/11 04:00:35;;;;;;;39.88;18.10;;;-6.60;86.90;;;;;;4973505;28;20027;-80
2021/01/11 04:03:05;;;;;;;37.30;18.77;;;-6.60;86.90;;;;;;4973059;28;20157;-79
2021/01/11 04:05:31;;;;;;;43.65;22.00;;;-6.50;87.00;;;;;;4974512;28;20026;-81
2021/01/11 04:07:57;;;;;;;37.00;16.95;;;-6.50;87.00;;;;;;4974835;28;20015;-82
2021/01/11 04:10:23;;;;;;;30.63;16.33;;;-6.50;87.00;;;;;;4955863;28;20484;-78
2021/01/11 04:12:49;;;;;;;36.20;19.52;;;-6.40;86.90;;;;;;4976259;28;20065;-78
2021/01/11 04:15:16;;;;;;;39.60;20.20;;;-6.40;86.90;;;;;;4977088;28;20058;-76
2021/01/11 04:17:42;;;;;;;40.35;19.65;;;-6.40;86.90;;;;;;4977715;28;20030;-79
2021/01/11 04:20:08;;;;;;;40.53;20.05;;;-6.30;86.90;;;;;;4977379;28;20027;-78
2021/01/11 04:22:34;;;;;;;39.85;18.35;;;-6.30;86.70;;;;;;4959292;28;20129;-79
2021/01/11 04:25:00;;;;;;;46.85;21.20;;;-6.30;86.40;;;;;;4957536;28;20081;-77
2021/01/11 04:27:26;;;;;;;34.63;16.40;;;-6.30;86.50;;;;;;4976791;28;20042;-78
2021/01/11 04:29:52;;;;;;;45.20;19.95;;;-6.30;86.40;;;;;;4977086;28;20026;-78
2021/01/11 04:32:18;;;;;;;35.35;16.70;;;-6.30;86.20;;;;;;4959740;28;20035;-78
2021/01/11 04:34:44;;;;;;;40.65;22.20;;;-6.30;86.00;;;;;;4977088;28;20015;-76
2021/01/11 04:37:10;;;;;;;37.60;19.98;;;-6.40;86.00;;;;;;4962054;28;20519;-78
2021/01/11 04:39:37;;;;;;;38.63;20.23;;;-6.40;86.30;;;;;;4986779;28;20042;-78
2021/01/11 04:42:09;;;;;;;39.53;21.67;;;-6.30;86.50;;;;;;4977033;28;20023;-78
2021/01/11 04:44:36;;;;;;;35.25;17.98;;;-6.40;86.40;;;;;;4977514;28;20027;-78
2021/01/11 04:47:03;;;;;;;40.80;20.27;;;-6.50;86.40;;;;;;4980395;28;20385;-77
2021/01/11 04:49:30;;;;;;;43.45;21.73;;;-6.50;86.80;;;;;;4983017;28;20037;-77
2021/01/11 04:51:56;;;;;;;47.53;22.33;;;-6.50;87.00;;;;;;4977778;28;20420;-78
2021/01/11 04:54:25;;;;;;;45.05;21.08;;;-6.50;87.00;;;;;;4984956;28;20058;-78
2021/01/11 04:56:59;;;;;;;40.80;18.70;;;-6.50;86.90;;;;;;4978007;28;20440;-78
2021/01/11 04:59:27;;;;;;;46.50;20.75;;;-6.40;86.80;;;;;;4977848;28;20023;-79
2021/01/11 05:01:53;;;;;;;47.75;26.45;;;-6.40;86.80;;;;;;4976527;28;20394;-78
2021/01/11 05:04:19;;;;;;;40.25;18.40;;;-6.40;86.80;;;;;;4959267;28;20033;-79
2021/01/11 05:06:46;;;;;;;41.75;21.42;;;-6.40;87.00;;;;;;4976342;28;20026;-77
2021/01/11 05:09:14;;;;;;;43.10;17.23;;;-6.30;87.00;;;;;;4976571;28;20043;-76
2021/01/11 05:11:43;;;;;;;41.97;21.95;;;-6.30;86.80;;;;;;4976654;28;20034;-80
2021/01/11 05:14:15;;;;;;;41.83;21.20;;;-6.40;86.80;;;;;;4976410;28;20019;-78
2021/01/11 05:16:41;;;;;;;44.83;22.92;;;-6.40;86.90;;;;;;4976403;28;20527;-77
2021/01/11 05:19:23;;;;;;;46.08;23.23;;;-6.50;86.70;;;;;;4976084;28;20523;-78
2021/01/11 05:21:48;;;;;;;46.05;22.23;;;-6.40;86.90;;;;;;4975966;28;20034;-78
2021/01/11 05:24:34;;;;;;;32.05;17.63;;;-6.40;86.90;;;;;;4974939;28;20065;-80
2021/01/11 05:27:05;;;;;;;41.55;20.10;;;-6.30;87.00;;;;;;4975794;28;20109;-77
2021/01/11 05:29:31;;;;;;;43.42;20.10;;;-6.30;87.40;;;;;;4958419;28;20476;-77
2021/01/11 05:32:08;;;;;;;40.90;20.75;;;-6.40;86.90;;;;;;4975669;28;20042;-78
2021/01/11 05:34:52;;;;;;;49.40;22.63;;;-6.30;86.80;;;;;;4975914;28;20026;-78
2021/01/11 05:37:39;;;;;;;36.33;21.13;;;-6.40;86.70;;;;;;4975883;28;20031;-78
2021/01/11 05:40:16;;;;;;;48.00;20.52;;;-6.40;86.80;;;;;;4975724;28;20102;-79
2021/01/11 05:42:47;;;;;;;42.70;20.83;;;-6.40;86.70;;;;;;4975943;28;20034;-78
2021/01/11 05:45:30;;;;;;;40.78;21.17;;;-6.30;86.80;;;;;;4975634;28;20022;-79
2021/01/11 05:48:15;;;;;;;41.13;19.38;;;-6.30;86.80;;;;;;4958496;28;20580;-77
2021/01/11 05:50:45;;;;;;;43.13;19.75;;;-6.30;86.90;;;;;;4964216;28;20035;-79
2021/01/11 05:53:40;;;;;;;41.90;19.65;;;-6.30;87.00;;;;;;4982372;28;20023;-78
2021/01/11 05:56:05;;;;;;;39.55;19.73;;;-6.30;86.70;;;;;;4956013;28;20473;-79
2021/01/11 05:58:31;;;;;;;45.30;20.55;;;-6.30;87.00;;;;;;4975708;28;20098;-78
2021/01/11 06:00:57;;;;;;;42.60;20.67;;;-6.40;87.10;;;;;;4975854;28;20065;-77
2021/01/11 06:03:23;;;;;;;41.08;18.92;;;-6.40;87.00;;;;;;4976137;28;20023;-79
2021/01/11 06:05:49;;;;;;;35.80;20.02;;;-6.30;87.10;;;;;;4962488;28;20101;-78
2021/01/11 06:08:15;;;;;;;40.22;17.92;;;-6.30;86.90;;;;;;4978043;28;20108;-80
2021/01/11 06:10:44;;;;;;;40.50;21.25;;;-6.30;86.80;;;;;;4978284;28;20440;-79
2021/01/11 06:13:11;;;;;;;45.25;19.92;;;-6.30;86.90;;;;;;4975363;28;20050;-79
2021/01/11 06:15:38;;;;;;;41.35;21.70;;;-6.30;86.70;;;;;;4975917;28;20105;-80
2021/01/11 06:18:12;;;;;;;34.72;19.80;;;-6.20;86.80;;;;;;4975961;28;20034;-79
2021/01/11 06:20:45;;;;;;;43.05;21.20;;;-6.20;86.70;;;;;;4980164;28;20019;-78
2021/01/11 06:23:25;;;;;;;37.67;19.52;;;-6.20;86.70;;;;;;4980128;28;20395;-79
2021/01/11 06:25:51;;;;;;;43.95;20.23;;;-6.20;87.30;;;;;;4974999;28;20043;-80
2021/01/11 06:28:35;;;;;;;42.85;23.95;;;-6.20;86.50;;;;;;4974836;28;20066;-79
2021/01/11 06:31:12;;;;;;;44.65;20.73;;;-6.20;86.30;;;;;;4957482;28;20035;-78
2021/01/11 06:33:39;;;;;;;40.05;17.52;;;-6.20;86.40;;;;;;4975214;28;20484;-79
2021/01/11 06:36:18;;;;;;;42.60;21.20;;;-6.20;86.50;;;;;;4975059;28;20038;-79
2021/01/11 06:38:48;;;;;;;40.67;17.77;;;-6.20;86.10;;;;;;4958709;28;20023;-79
2021/01/11 06:41:19;;;;;;;37.92;17.55;;;-6.20;86.20;;;;;;4975243;28;20023;-78
2021/01/11 06:43:47;;;;;;;35.67;18.23;;;-6.20;86.00;;;;;;4975154;28;20015;-80
2021/01/11 06:46:31;;;;;;;44.25;19.45;;;-6.20;86.10;;;;;;4958354;28;20485;-78
2021/01/11 06:48:57;;;;;;;38.50;17.67;;;-6.20;85.80;;;;;;4978862;28;20027;-78
2021/01/11 06:51:40;;;;;;;32.07;16.80;;;-6.30;85.80;;;;;;4960926;28;20035;-79
2021/01/11 06:54:07;;;;;;;37.72;17.80;;;-6.30;85.80;;;;;;4959904;28;20082;-79
2021/01/11 06:56:34;;;;;;;38.30;18.17;;;-6.30;86.20;;;;;;4977282;28;20098;-79
2021/01/11 06:59:13;;;;;;;;;;;-6.30;86.40;;;;;;4959561;28;20050;-77
2021/01/11 07:01:42;;;;;;;39.00;18.25;;;-6.30;86.40;;;;;;4958028;28;20367;-79
2021/01/11 07:04:09;;;;;;;35.88;17.40;;;-6.30;86.80;;;;;;4975289;28;20014;-80
2021/01/11 07:06:45;;;;;;;37.03;19.73;;;-6.30;87.40;;;;;;4975269;28;20026;-79
2021/01/11 07:09:17;;;;;;;33.67;17.02;;;-6.30;86.80;;;;;;4962052;28;20070;-79
2021/01/11 07:11:51;;;;;;;41.28;17.70;;;-6.20;86.90;;;;;;4974366;28;20050;-80
2021/01/11 07:14:21;;;;;;;39.42;20.98;;;-6.10;86.70;;;;;;4961552;28;20015;-80
2021/01/11 07:16:50;;;;;;;37.00;16.48;;;-6.10;86.50;;;;;;4974417;28;20026;-79
2021/01/11 07:19:37;;;;;;;40.50;20.05;;;-6.10;86.30;;;;;;4974251;28;20015;-78
2021/01/11 07:22:09;;;;;;;40.95;18.98;;;-6.10;86.20;;;;;;4953810;28;20023;-79
2021/01/11 07:24:44;;;;;;;37.30;18.15;;;-6.10;86.00;;;;;;4976226;28;20346;-79
2021/01/11 07:27:10;;;;;;;43.53;20.58;;;-6.00;85.80;;;;;;4973953;28;20112;-80
2021/01/11 07:29:36;;;;;;;44.97;17.63;;;-6.00;85.80;;;;;;4973811;28;20035;-79
2021/01/11 07:32:02;;;;;;;61.55;21.77;;;-6.00;85.70;;;;;;4973833;28;20097;-78
2021/01/11 07:34:28;;;;;;;32.47;17.65;;;-6.00;85.30;;;;;;4973861;28;20019;-77
2021/01/11 07:36:56;;;;;;;35.60;18.42;;;-6.00;85.30;;;;;;4956464;28;20027;-79
2021/01/11 07:39:27;;;;;;;31.45;16.60;;;-6.00;85.30;;;;;;4973966;28;20022;-78
2021/01/11 07:42:00;;;;;;;35.22;18.00;;;-6.00;85.30;;;;;;4973871;28;20015;-79
2021/01/11 07:44:37;;;;;;;33.83;13.98;;;-6.00;85.10;;;;;;4974687;28;20101;-79
2021/01/11 07:47:15;;;;;;;34.17;16.90;;;-6.00;85.20;;;;;;4944616;28;20495;-80
2021/01/11 07:49:49;;;;;;;28.90;14.75;;;-6.10;85.30;;;;;;4975041;28;20023;-78
2021/01/11 07:52:24;;;;;;;37.88;15.73;;;-6.00;85.50;;;;;;4974302;28;20026;-78
2021/01/11 07:54:58;;;;;;;34.55;18.60;;;-6.00;85.50;;;;;;4978894;28;20448;-79
2021/01/11 07:57:27;;;;;;;26.02;14.02;;;-6.00;85.70;;;;;;4974004;28;20015;-80
2021/01/11 08:00:06;;;;;;;38.28;17.08;;;-6.10;85.60;;;;;;4973995;28;20492;-79
2021/01/11 08:02:33;;;;;;;38.83;19.38;;;-6.10;85.70;;;;;;4944882;28;20062;-80
2021/01/11 08:04:59;;;;;;;40.87;17.37;;;-6.00;85.80;;;;;;4975435;28;20436;-80
2021/01/11 08:07:35;;;;;;;37.40;19.27;;;-6.00;85.00;;;;;;4964312;28;20328;-79
2021/01/11 08:10:01;;;;;;;36.13;17.67;;;-6.00;85.00;;;;;;4974207;28;20027;-79
2021/01/11 08:12:28;;;;;;;37.53;19.00;;;-6.10;85.30;;;;;;4973841;28;20384;-80
2021/01/11 08:15:08;;;;;;;42.08;19.02;;;-6.10;85.60;;;;;;4973926;28;20054;-79
2021/01/11 08:17:41;;;;;;;39.28;20.17;;;-6.00;85.80;;;;;;4956620;28;20476;-79
2021/01/11 08:20:08;;;;;;;35.40;16.77;;;-5.90;85.70;;;;;;4973441;28;20019;-79
2021/01/11 08:22:34;;;;;;;37.80;20.63;;;-5.90;85.60;;;;;;4973721;28;20464;-79
2021/01/11 08:25:00;;;;;;;33.65;17.05;;;-5.90;85.30;;;;;;4973633;28;20161;-79
2021/01/11 08:27:31;;;;;;;42.72;18.83;;;-5.90;85.10;;;;;;4973548;28;20045;-78
2021/01/11 08:30:04;;;;;;;36.55;18.75;;;-5.80;84.90;;;;;;4973575;28;20023;-80
2021/01/11 08:32:32;;;;;;;36.65;18.52;;;-5.80;84.80;;;;;;4974124;28;20030;-77
2021/01/11 08:34:58;;;;;;;39.40;19.70;;;-5.80;85.00;;;;;;4955824;28;20023;-78
2021/01/11 08:37:32;;;;;;;31.98;18.05;;;-5.90;84.90;;;;;;4956069;28;20034;-80
2021/01/11 08:40:04;;;;;;;42.13;19.55;;;-5.90;85.40;;;;;;4973740;28;20026;-79
2021/01/11 08:42:38;;;;;;;41.45;21.85;;;-5.80;85.60;;;;;;4974171;28;20121;-80
2021/01/11 08:45:33;;;;;;;46.42;20.77;;;-5.70;85.40;;;;;;4974161;28;20110;-78
2021/01/11 08:48:07;;;;;;;37.80;18.70;;;-5.70;84.70;;;;;;4961261;28;20038;-78
2021/01/11 08:50:37;;;;;;;37.35;18.48;;;-5.70;84.00;;;;;;4980099;28;20062;-77
2021/01/11 08:53:18;;;;;;;35.35;17.95;;;-5.70;83.70;;;;;;4981910;28;20438;-79
2021/01/11 08:56:00;;;;;;;41.85;20.75;;;-5.80;83.80;;;;;;4962094;28;20102;-80
2021/01/11 08:58:30;;;;;;;40.63;20.08;;;-5.80;84.20;;;;;;4973887;28;20027;-79
2021/01/11 09:01:17;;;;;;;45.58;22.42;;;-5.80;84.40;;;;;;4977419;28;20528;-81
2021/01/11 09:03:53;;;;;;;34.20;19.57;;;-5.80;84.30;;;;;;4976880;28;20018;-80
2021/01/11 09:06:38;;;;;;;42.72;23.83;;;-5.70;84.00;;;;;;4976539;28;20030;-78
2021/01/11 09:09:13;;;;;;;43.50;20.73;;;-5.70;83.90;;;;;;4958964;28;20492;-79
2021/01/11 09:11:40;;;;;;;43.47;23.63;;;-5.70;84.00;;;;;;4976318;28;20038;-78
2021/01/11 09:14:15;;;;;;;40.33;20.95;;;-5.70;84.20;;;;;;4976343;28;20077;-80
2021/01/11 09:16:42;;;;;;;41.25;23.55;;;-5.70;84.40;;;;;;4976425;28;20105;-79
2021/01/11 09:19:19;;;;;;;39.35;20.65;;;-5.60;84.10;;;;;;4958708;28;20015;-80
2021/01/11 09:22:06;;;;;;;41.05;22.42;;;-5.60;83.90;;;;;;4958854;28;20070;-80
2021/01/11 09:24:33;;;;;;;38.05;19.20;;;-5.60;84.00;;;;;;4976204;28;20042;-81
2021/01/11 09:26:59;;;;;;;38.92;20.85;;;-5.50;84.10;;;;;;4976158;28;20054;-78
2021/01/11 09:29:26;;;;;;;43.27;20.53;;;-5.60;83.90;;;;;;4976516;28;20031;-79
2021/01/11 09:31:53;;;;;;;40.03;21.10;;;-5.50;83.60;;;;;;4976444;28;20169;-79
2021/01/11 09:34:19;;;;;;;40.45;20.17;;;-5.50;83.70;;;;;;4976337;28;20015;-79
2021/01/11 09:36:46;;;;;;;45.95;21.13;;;-5.50;83.90;;;;;;4977098;28;20181;-79
2021/01/11 09:39:14;;;;;;;42.85;20.60;;;-5.50;84.20;;;;;;4979853;28;20527;-80
2021/01/11 09:41:51;;;;;;;42.53;22.95;;;-5.50;84.20;;;;;;4982885;28;20489;-79
2021/01/11 09:44:17;;;;;;;58.72;27.05;;;-5.50;83.80;;;;;;4982383;28;20113;-79
2021/01/11 09:46:48;;;;;;;42.67;21.95;;;-5.40;83.50;;;;;;4977566;28;20045;-80
2021/01/11 09:49:14;;;;;;;49.70;24.45;;;-5.50;83.50;;;;;;4976851;28;20023;-80
2021/01/11 09:51:40;;;;;;;40.38;23.35;;;-5.40;83.80;;;;;;4976543;28;20033;-80
2021/01/11 09:54:08;;;;;;;41.03;22.85;;;-5.40;83.90;;;;;;4983040;28;20022;-79
2021/01/11 09:56:37;;;;;;;41.63;20.92;;;-5.40;83.60;;;;;;4975750;28;20484;-80
2021/01/11 09:59:05;;;;;;;41.08;20.40;;;-5.40;83.50;;;;;;4959549;28;20400;-79
2021/01/11 10:01:47;;;;;;;47.47;22.15;;;-5.30;83.50;;;;;;4975963;28;20022;-78
2021/01/11 10:04:14;;;;;;;51.95;26.45;;;-5.40;83.10;;;;;;4952402;28;20018;-80
2021/01/11 10:06:47;;;;;;;37.03;18.75;;;-5.30;83.40;;;;;;4984220;28;20019;-80
2021/01/11 10:09:16;;;;;;;51.35;23.85;;;-5.30;83.20;;;;;;4962998;28;20492;-78
2021/01/11 10:11:44;;;;;;;44.80;21.67;;;-5.30;83.00;;;;;;4975580;28;20053;-79
2021/01/11 10:14:09;;;;;;;42.13;20.48;;;-5.20;83.10;;;;;;4975204;28;20023;-79
2021/01/11 10:16:40;;;;;;;39.00;21.75;;;-5.20;83.50;;;;;;4974988;28;20465;-79
2021/01/11 10:19:07;;;;;;;42.30;20.73;;;-5.20;83.50;;;;;;4975087;28;20065;-78
2021/01/11 10:21:33;;;;;;;40.50;21.08;;;-5.10;82.90;;;;;;4975348;28;20031;-80
2021/01/11 10:23:59;;;;;;;44.53;21.13;;;-5.10;82.70;;;;;;4975044;28;20461;-79
2021/01/11 10:26:25;;;;;;;51.20;25.42;;;-5.00;83.10;;;;;;4974939;28;20130;-80
2021/01/11 10:28:51;;;;;;;46.58;21.35;;;-5.00;83.20;;;;;;4975153;28;20473;-79
2021/01/11 10:31:18;;;;;;;41.22;20.35;;;-5.00;82.80;;;;;;4974364;28;20080;-79
2021/01/11 10:33:48;;;;;;;42.33;19.35;;;-5.00;82.40;;;;;;4975396;28;20047;-80
2021/01/11 10:36:15;;;;;;;41.05;22.25;;;-4.90;82.70;;;;;;4974948;28;20069;-79
2021/01/11 10:38:42;;;;;;;43.50;19.90;;;-4.90;82.80;;;;;;4975396;28;20027;-78
2021/01/11 10:41:15;;;;;;;44.83;19.98;;;-4.80;82.50;;;;;;4974566;28;20073;-80
2021/01/11 10:43:41;;;;;;;46.08;20.50;;;-4.80;82.30;;;;;;4974949;28;20045;-79
2021/01/11 10:46:11;;;;;;;49.30;23.10;;;-4.80;82.10;;;;;;4943031;28;20022;-78
2021/01/11 10:48:47;;;;;;;42.72;22.85;;;-4.80;81.90;;;;;;4986320;28;20150;-80
2021/01/11 10:51:16;;;;;;;40.53;21.25;;;-4.70;81.90;;;;;;4963957;28;20030;-78
2021/01/11 10:53:44;;;;;;;42.78;21.35;;;-4.70;82.10;;;;;;4981686;28;20027;-78
2021/01/11 10:56:12;;;;;;;39.60;21.90;;;-4.70;82.60;;;;;;4957183;28;20023;-80
2021/01/11 10:58:38;;;;;;;42.40;22.20;;;-4.70;82.60;;;;;;4974340;28;20023;-79
2021/01/11 11:01:11;;;;;;;43.33;20.27;;;-4.70;81.90;;;;;;4978046;28;20041;-79
2021/01/11 11:03:37;;;;;;;35.55;16.80;;;-4.70;82.00;;;;;;4956858;28;21440;-80
2021/01/11 11:06:03;;;;;;;44.45;22.40;;;-4.70;82.20;;;;;;4974214;28;20105;-79
2021/01/11 11:08:29;;;;;;;37.72;20.50;;;-4.80;81.90;;;;;;4974158;28;20046;-80
2021/01/11 11:10:55;;;;;;;41.17;19.13;;;-4.80;81.70;;;;;;4974297;28;20503;-79
2021/01/11 11:13:21;;;;;;;39.92;20.52;;;-4.80;81.90;;;;;;4974549;28;20442;-80
2021/01/11 11:15:47;;;;;;;42.60;16.80;;;-4.80;81.90;;;;;;4956497;28;20045;-79
2021/01/11 11:18:14;;;;;;;41.80;19.33;;;-4.90;81.90;;;;;;4974188;28;20023;-78
2021/01/11 11:20:43;;;;;;;41.55;18.02;;;-4.90;82.30;;;;;;4973778;28;20472;-80
2021/01/11 11:23:09;;;;;;;44.17;20.52;;;-5.00;82.30;;;;;;4956431;28;20031;-80
2021/01/11 11:25:34;;;;;;;37.03;18.73;;;-5.00;82.70;;;;;;4974216;28;20535;-80
2021/01/11 11:28:01;;;;;;;38.42;18.65;;;-5.00;83.00;;;;;;4974325;28;20026;-81
2021/01/11 11:30:27;;;;;;;33.40;19.80;;;-5.10;83.20;;;;;;4974039;28;20042;-79
2021/01/11 11:32:53;;;;;;;39.47;21.65;;;-5.00;83.80;;;;;;4973975;28;20023;-80
2021/01/11 11:35:21;;;;;;;33.42;19.58;;;-5.00;84.10;;;;;;4974007;28;20019;-82
2021/01/11 11:37:48;;;;;;;35.15;18.75;;;-5.00;84.00;;;;;;4957093;28;20073;-80
2021/01/11 11:40:26;;;;;;;36.30;20.93;;;-5.00;83.90;;;;;;4974859;28;20025;-79
2021/01/11 11:42:52;;;;;;;41.80;19.00;;;-5.00;84.10;;;;;;4975396;28;20030;-79
2021/01/11 11:45:20;;;;;;;38.20;20.63;;;-5.00;84.10;;;;;;4959020;28;20476;-80
2021/01/11 11:47:48;;;;;;;33.03;18.42;;;-5.00;84.00;;;;;;4959311;28;20023;-79
2021/01/11 11:50:16;;;;;;;41.78;20.35;;;-4.90;83.90;;;;;;4957488;28;20122;-80
2021/01/11 11:52:42;;;;;;;35.83;17.83;;;-4.90;83.70;;;;;;4978006;28;20019;-79
2021/01/11 11:55:10;;;;;;;38.92;16.25;;;-4.80;83.30;;;;;;4979218;28;20485;-78
2021/01/11 11:57:40;;;;;;;37.03;17.38;;;-4.70;83.30;;;;;;4975078;28;20030;-79
2021/01/11 12:00:08;;;;;;;40.25;20.42;;;-4.80;83.30;;;;;;4973872;28;20019;-77
2021/01/11 12:02:34;;;;;;;40.88;20.05;;;-4.80;83.20;;;;;;4957048;28;20401;-78
2021/01/11 12:05:45;;;;;;;44.13;22.38;;;-4.80;83.20;;;;;;4974653;28;20046;-78
2021/01/11 12:08:11;;;;;;;40.53;19.15;;;-4.80;83.10;;;;;;4956281;28;20031;-78
2021/01/11 12:10:37;;;;;;;35.67;18.92;;;-4.80;83.30;;;;;;4975121;28;20046;-79
2021/01/11 12:13:03;;;;;;;38.78;20.73;;;-4.80;83.30;;;;;;4974404;28;20022;-79
2021/01/11 12:15:29;;;;;;;39.15;18.63;;;-4.80;83.20;;;;;;4973801;28;20473;-79
2021/01/11 12:17:55;;;;;;;42.65;19.08;;;-4.90;83.00;;;;;;4973661;28;20052;-80
2021/01/11 12:20:20;;;;;;;45.42;19.20;;;-4.90;83.40;;;;;;4973714;28;20030;-79
2021/01/11 12:22:46;;;;;;;41.88;21.20;;;-5.00;83.50;;;;;;4974107;28;20058;-79
2021/01/11 12:25:13;;;;;;;40.45;21.20;;;-5.00;83.50;;;;;;4975459;28;20027;-80
2021/01/11 12:27:38;;;;;;;36.92;18.27;;;-5.00;83.40;;;;;;4955816;28;20062;-79
2021/01/11 12:30:05;;;;;;;36.67;19.40;;;-5.00;83.30;;;;;;4973576;28;20483;-79
2021/01/11 12:32:31;;;;;;;36.00;19.70;;;-5.10;83.50;;;;;;4956652;28;20039;-79
2021/01/11 12:34:57;;;;;;;43.08;20.90;;;-5.10;83.70;;;;;;4977365;28;20023;-78
2021/01/11 12:37:23;;;;;;;37.83;18.20;;;-5.10;83.90;;;;;;4961074;28;20026;-79
2021/01/11 12:39:49;;;;;;;33.88;19.83;;;-5.10;84.10;;;;;;4960800;28;20034;-79
2021/01/11 12:42:18;;;;;;;46.30;21.27;;;-5.10;84.30;;;;;;4978134;28;20030;-80